Melo Viana, Brazil
Current Conditions -  °F | °C
As of 3:00 AM on Sunday 21 Dec 2014 (Local Time) from SBBH Reporting Station
Scattered Clouds Scattered Clouds  
Wind Chill: 72°   Ceiling: Unl
Heat Index: 72°   Visibility: 6mi
Dew Point: 64°   Wind: 5mph
Humidity: 78%   Direction: 80°E
Pressure: 29.97"   Gusts: NA
Location:  19.7°S, 44.19°W
Report Text: SBBH 210500Z 08004KT 9999 SCT040 22/18 Q1015
Loading
Personal Weather Stations






























Interactive Weather Map New forecast layout! Learn more

10-Day Weather Forecast

Advertisements
Track Severe Weather on mobile